Corpus Christi International Airport
KCRP : now visible

Airfield :











YOU CAN JOIN US ON...

 
LOGIN :

Register | Disclaimer

   EN    FR    IT 

 









Legend :    VFR   Marginal VFR   IFR   Intensive IFR   Very Intensive IFR
Visi :
Ceiling :
>= 8 km
>= 3000ft
5 to 8 km
1000 to 3000 ft
1500m to 5 km
500 to 1000 ft
800 to 1500m
200 to 500 ft
< 800m
< 200 ft
Symbols :   Thunderstorms  Fog  Heavy snow  Heavy precipitations  Wind > 20 kt






- Airport Elevation : 44 ft
- IATA code : CRP


KCRP - Corpus Christi International

CURRENT METAR :
  • 131651Z 34007KT 10SM SCT024 SCT065 BKN110 OVC130 06/M02 A3032 RMK AO2 RAE1557B35E45 SLP268 P0000 T00561017

EXPIRED METARs :
  • 131613Z 36008KT 10SM FEW018 BKN023 BKN100 OVC130 05/M02 A3034 RMK AO2 RAE1557 P0000 T00501017
  • 131551Z 34006KT 10SM -RA FEW024 SCT070 BKN095 OVC130 04/M01 A3035 RMK AO2 RAB42 SLP277 P0000 T00391011
  • 131451Z 35006KT 10SM BKN075 OVC120 04/M02 A3035 RMK AO2 SLP276 T00441022 50003

TAF KCRP
Valid from the 13 at 17:00 until the 14 at 12:00 UTC


131642Z 1317/1412 01010KT P6SM SCT025 OVC120
TEMPO 1317/1320 BKN025 OVC120
FM132000 36008KT P6SM SCT025 OVC060
FM140000 36008KT P6SM -RA OVC030
FM140600 36007KT P6SM -RA OVC015



MET'MAP, your aeronautical weather chart ! - Copyright ORBIFLY December 2007 - Disclaimer

ORBIFLY MET'MAP TEAM :

Programming & Development : Alexandra Zaïnal
Concept & Development : Baudouin d'Aumeries
Co-Development & Prog : Marc-Olivier Méhu
Technical & hardware support : Manuel Goepfert

Contact : metmap@orbifly.com




SOURCES & CREDITS :

   NOAA       Earth
Advisory